Aérodrome :
LOGIN :

S'inscrire | Disclaimer

   EN    FR    IT 

 










Légende :    VFR   VFR Marginal   IFR   IFR Intensif   IFR Très Intensif
Visi : 
Plafond : 
>= 8 km
>= 3000ft
5 à 8 km
1000 à 3000 ft
1500m à 5 km
500 à 1000 ft
800 à 1500m
200 à 500 ft
< 800m
< 200 ft
Symboles :   Orages  Brouillard  Fortes neiges  Fortes précipitations  Vent > 20 kt
SIGMETs :   Divers  Orages  Givrage  Turbulence  Onde Orograph.  Cendres Volcan.






- Altitude de l'aérodrome : 291 ft
- Code IATA : ORY


LFPO - Paris-Orly

DERNIER METAR :
  • 260417Z 20004KT 0600 R02/0650D R25/1500D R07/1000D R24/0900D R06/1200D FG VV/// 09/08 Q1022 NOSIG

METARs EXPIRÉS :
  • 260400Z 20004KT 7000 MIFG NSC 09/08 Q1022 NOSIG
  • 260300Z 20003KT 7000 MIFG NSC 09/09 Q1022 NOSIG
  • 260230Z 21005KT 7000 MIFG NSC 09/09 Q1022 NOSIG
  • 260200Z 23005KT 7000 R25/1000D MIFG NSC 09/09 Q1022 NOSIG
  • 260130Z 20002KT 7000 R25/1300U MIFG NSC 09/09 Q1022 NOSIG

TAF AMD TAF LFPO
Valide du 26 à 00h jusqu'au 27 à 06h UTC


252352Z 2600/2706 22006KT 8000 NSC
TEMPO 2600/2610 3500 BR BKN003
PROB40
TEMPO 2602/2609 0500 FG VV///
BECMG 2610/2612 BKN010
BECMG 2612/2614 SCT015
TEMPO 2614/2620 BKN014
PROB40
TEMPO 2704/2706 2500 BR
PROB30
TEMPO 2705/2706 0300 FG VV///
ATIS : +33 1 49 75 65 80



MET'MAP, la Météo Aéronautique d'un coup d'oeil ! - Copyright ORBIFLY Décembre 2007 - Disclaimer

ORBIFLY MET'MAP TEAM :

Programmation & Développement : Alexandra Zaïnal
Sur une idée originale de : Baudouin d'Aumeries
Assistance à la programmation : Marc-Olivier Méhu
Soutien technique & logistique : Manuel Goepfert

Contact : metmap@orbifly.com




SOURCES & CREDITS :

   NOAA